Kuzguncuk — TCAZ7 — position and weather

sailwx.info

Track history (hours):
 
Tides and Currents Weather Stations Pressure Air Temp Water Temp Dewpoint Dewpoint Depression Visibility Wind Speed Wind Dir Waves Ship Positions

Kuzguncuk

Last reported at 2017-Dec-11 17:01 UTC. Time now 2017-Dec-11 17:30 UTC.
Position N 46°31' E 030°44'.

Length 99 m; draft 4.9 m.

Type: Tanker. MMSI: 271000882.

Date/timePositionNaut miles runAvg speedWind from/ knotsBaromVisibWave heightAir tempDewpointWater temp
2017-Dec-11 17:01N 46°31' E 030°44'0 0.0
2017-Dec-11 16:30N 46°31' E 030°44'0 0.0
2017-Dec-11 16:01N 46°31' E 030°44'0 0.0
2017-Dec-11 15:30N 46°31' E 030°44'0 0.0
2017-Dec-11 15:01N 46°31' E 030°44'0 0.0
2017-Dec-11 14:31N 46°31' E 030°44'0 0.0
2017-Dec-11 14:01N 46°31' E 030°44'0 0.0
2017-Dec-11 13:31N 46°31' E 030°44'0 0.0
2017-Dec-11 13:00N 46°31' E 030°44'0 0.0
2017-Dec-11 12:31N 46°31' E 030°44'1 1.4
2017-Dec-11 12:01N 46°30' E 030°44'4 7.7
2017-Dec-11 11:31N 46°29' E 030°50'4 7.4
2017-Dec-11 11:00N 46°26' E 030°53'0 0.1
2017-Dec-11 10:30N 46°26' E 030°53'0 0.0
2017-Dec-11 10:01N 46°26' E 030°53'0 0.0
2017-Dec-11 09:31N 46°26' E 030°53'0 0.0
2017-Dec-11 09:00N 46°26' E 030°53'0 0.0
2017-Dec-11 08:30N 46°26' E 030°53'0 0.0
2017-Dec-11 08:00N 46°26' E 030°53'0 0.0
2017-Dec-11 07:31N 46°26' E 030°53'2 3.6
2017-Dec-11 07:00N 46°28' E 030°52'5 9.3
2017-Dec-11 06:28N 46°23' E 030°54'14413.7
2017-Dec-10 19:58N 44°10' E 029°34'1014.0
2017-Dec-10 19:16N 44°03' E 029°25'414.0
2017-Dec-10 19:00N 44°00' E 029°22'713.9
2017-Dec-10 18:30N 43°55' E 029°16'714.0
2017-Dec-10 18:00N 43°50' E 029°09'714.0
2017-Dec-10 17:30N 43°44' E 029°03'714.2
2017-Dec-10 17:00N 43°39' E 028°57'814.3
2017-Dec-10 16:27N 43°32' E 028°51'  
Track history (hours):
 
Tides and Currents Weather Stations Pressure Air Temp Water Temp Dewpoint Dewpoint Depression Visibility Wind Speed Wind Dir Waves Ship Positions

Kuzguncuk

Last reported at 2017-Dec-11 17:01 UTC. Time now 2017-Dec-11 17:30 UTC.
Position N 46°31' E 030°44'.

Length 99 m; draft 4.9 m.

Type: Tanker. MMSI: 271000882.

Date/timePositionNaut miles runAvg speedWind from/ knotsBaromVisibWave heightAir tempDewpointWater temp
2017-Dec-11 17:01N 46°31' E 030°44'0 0.0
2017-Dec-11 16:30N 46°31' E 030°44'0 0.0
2017-Dec-11 16:01N 46°31' E 030°44'0 0.0
2017-Dec-11 15:30N 46°31' E 030°44'0 0.0
2017-Dec-11 15:01N 46°31' E 030°44'0 0.0
2017-Dec-11 14:31N 46°31' E 030°44'0 0.0
2017-Dec-11 14:01N 46°31' E 030°44'0 0.0
2017-Dec-11 13:31N 46°31' E 030°44'0 0.0
2017-Dec-11 13:00N 46°31' E 030°44'0 0.0
2017-Dec-11 12:31N 46°31' E 030°44'1 1.4
2017-Dec-11 12:01N 46°30' E 030°44'4 7.7
2017-Dec-11 11:31N 46°29' E 030°50'4 7.4
2017-Dec-11 11:00N 46°26' E 030°53'0 0.1
2017-Dec-11 10:30N 46°26' E 030°53'0 0.0
2017-Dec-11 10:01N 46°26' E 030°53'0 0.0
2017-Dec-11 09:31N 46°26' E 030°53'0 0.0
2017-Dec-11 09:00N 46°26' E 030°53'0 0.0
2017-Dec-11 08:30N 46°26' E 030°53'0 0.0
2017-Dec-11 08:00N 46°26' E 030°53'0 0.0
2017-Dec-11 07:31N 46°26' E 030°53'2 3.6
2017-Dec-11 07:00N 46°28' E 030°52'5 9.3
2017-Dec-11 06:28N 46°23' E 030°54'14413.7
2017-Dec-10 19:58N 44°10' E 029°34'1014.0
2017-Dec-10 19:16N 44°03' E 029°25'414.0
2017-Dec-10 19:00N 44°00' E 029°22'713.9
2017-Dec-10 18:30N 43°55' E 029°16'714.0
2017-Dec-10 18:00N 43°50' E 029°09'714.0
2017-Dec-10 17:30N 43°44' E 029°03'714.2
2017-Dec-10 17:00N 43°39' E 028°57'814.3
2017-Dec-10 16:27N 43°32' E 028°51'  

Dump ship's entire track history